sensor_id;sensor_type;location;lat;lon;timestamp;P1;durP1;ratioP1;P2;durP2;ratioP2
45274;SDS011;31019;43.780;25.948;2022-12-07T01:00:28;117.22;;;64.65;;
45274;SDS011;31019;43.780;25.948;2022-12-07T01:03:00;116.47;;;64.22;;
45274;SDS011;31019;43.780;25.948;2022-12-07T01:05:31;113.55;;;60.53;;
45274;SDS011;31019;43.780;25.948;2022-12-07T01:08:03;94.90;;;58.33;;
45274;SDS011;31019;43.780;25.948;2022-12-07T01:10:30;112.32;;;66.22;;
45274;SDS011;31019;43.780;25.948;2022-12-07T01:12:58;110.47;;;63.67;;
45274;SDS011;31019;43.780;25.948;2022-12-07T01:15:30;119.90;;;64.43;;
45274;SDS011;31019;43.780;25.948;2022-12-07T01:17:58;110.37;;;62.33;;
45274;SDS011;31019;43.780;25.948;2022-12-07T01:20:34;93.95;;;61.90;;
45274;SDS011;31019;43.780;25.948;2022-12-07T01:23:04;97.97;;;59.58;;
45274;SDS011;31019;43.780;25.948;2022-12-07T01:25:32;106.18;;;61.03;;
45274;SDS011;31019;43.780;25.948;2022-12-07T01:28:02;101.47;;;59.85;;
45274;SDS011;31019;43.780;25.948;2022-12-07T01:30:34;93.57;;;58.25;;
45274;SDS011;31019;43.780;25.948;2022-12-07T01:33:02;106.15;;;61.65;;
45274;SDS011;31019;43.780;25.948;2022-12-07T01:35:29;93.80;;;63.15;;
45274;SDS011;31019;43.780;25.948;2022-12-07T01:37:57;97.03;;;64.45;;
45274;SDS011;31019;43.780;25.948;2022-12-07T01:40:39;99.10;;;67.38;;
45274;SDS011;31019;43.780;25.948;2022-12-07T01:43:17;84.80;;;57.75;;
45274;SDS011;31019;43.780;25.948;2022-12-07T01:45:54;94.13;;;59.42;;
45274;SDS011;31019;43.780;25.948;2022-12-07T01:48:22;91.07;;;58.67;;
45274;SDS011;31019;43.780;25.948;2022-12-07T01:51:08;92.80;;;57.25;;
45274;SDS011;31019;43.780;25.948;2022-12-07T01:53:37;99.70;;;67.57;;
45274;SDS011;31019;43.780;25.948;2022-12-07T01:56:10;94.35;;;59.38;;
45274;SDS011;31019;43.780;25.948;2022-12-07T01:58:43;101.05;;;59.70;;
45274;SDS011;31019;43.780;25.948;2022-12-07T02:01:14;94.82;;;59.10;;
45274;SDS011;31019;43.780;25.948;2022-12-07T02:03:42;103.82;;;61.20;;
45274;SDS011;31019;43.780;25.948;2022-12-07T02:06:13;97.85;;;59.80;;
45274;SDS011;31019;43.780;25.948;2022-12-07T02:08:49;101.65;;;59.30;;
45274;SDS011;31019;43.780;25.948;2022-12-07T02:11:17;81.70;;;53.25;;
45274;SDS011;31019;43.780;25.948;2022-12-07T02:13:48;101.28;;;59.58;;
45274;SDS011;31019;43.780;25.948;2022-12-07T02:16:27;97.28;;;61.35;;
45274;SDS011;31019;43.780;25.948;2022-12-07T02:19:07;101.43;;;58.58;;
45274;SDS011;31019;43.780;25.948;2022-12-07T02:22:06;99.20;;;57.40;;
45274;SDS011;31019;43.780;25.948;2022-12-07T02:24:54;94.47;;;60.33;;
45274;SDS011;31019;43.780;25.948;2022-12-07T02:27:39;102.43;;;59.70;;
45274;SDS011;31019;43.780;25.948;2022-12-07T02:30:28;102.57;;;57.92;;
45274;SDS011;31019;43.780;25.948;2022-12-07T02:33:03;107.00;;;59.58;;
45274;SDS011;31019;43.780;25.948;2022-12-07T02:35:33;100.13;;;58.85;;
45274;SDS011;31019;43.780;25.948;2022-12-07T02:38:10;93.18;;;55.85;;
45274;SDS011;31019;43.780;25.948;2022-12-07T02:40:41;105.00;;;59.65;;
45274;SDS011;31019;43.780;25.948;2022-12-07T02:43:18;105.57;;;57.58;;
45274;SDS011;31019;43.780;25.948;2022-12-07T02:45:51;91.10;;;57.53;;
45274;SDS011;31019;43.780;25.948;2022-12-07T02:48:22;88.97;;;55.97;;
45274;SDS011;31019;43.780;25.948;2022-12-07T02:50:52;94.80;;;63.72;;
45274;SDS011;31019;43.780;25.948;2022-12-07T02:53:34;83.07;;;58.83;;
45274;SDS011;31019;43.780;25.948;2022-12-07T02:58:39;91.10;;;57.92;;
45274;SDS011;31019;43.780;25.948;2022-12-07T05:04:31;136.68;;;61.15;;
45274;SDS011;31019;43.780;25.948;2022-12-07T05:14:48;110.27;;;58.20;;
45274;SDS011;31019;43.780;25.948;2022-12-07T05:30:58;107.38;;;63.15;;
45274;SDS011;31019;43.780;25.948;2022-12-07T05:34:15;90.90;;;65.40;;
45274;SDS011;31019;43.780;25.948;2022-12-07T05:58:57;90.35;;;64.03;;
45274;SDS011;31019;43.780;25.948;2022-12-07T06:01:42;108.75;;;69.15;;
45274;SDS011;31019;43.780;25.948;2022-12-07T06:12:05;90.70;;;65.50;;
45274;SDS011;31019;43.780;25.948;2022-12-07T06:22:35;92.53;;;56.97;;
45274;SDS011;31019;43.780;25.948;2022-12-07T06:25:02;97.07;;;59.78;;
45274;SDS011;31019;43.780;25.948;2022-12-07T06:27:30;86.97;;;53.80;;
45274;SDS011;31019;43.780;25.948;2022-12-07T06:29:57;99.15;;;52.00;;
45274;SDS011;31019;43.780;25.948;2022-12-07T06:32:24;79.57;;;50.35;;
45274;SDS011;31019;43.780;25.948;2022-12-07T06:34:51;81.90;;;52.05;;
45274;SDS011;31019;43.780;25.948;2022-12-07T06:37:18;70.65;;;48.33;;
45274;SDS011;31019;43.780;25.948;2022-12-07T06:39:46;77.07;;;48.83;;
45274;SDS011;31019;43.780;25.948;2022-12-07T06:42:13;56.72;;;44.88;;
45274;SDS011;31019;43.780;25.948;2022-12-07T06:44:39;56.33;;;43.45;;
45274;SDS011;31019;43.780;25.948;2022-12-07T06:47:06;69.40;;;48.33;;
45274;SDS011;31019;43.780;25.948;2022-12-07T06:49:34;60.83;;;47.00;;
45274;SDS011;31019;43.780;25.948;2022-12-07T06:52:01;75.30;;;49.00;;
45274;SDS011;31019;43.780;25.948;2022-12-07T06:54:29;59.97;;;45.88;;
45274;SDS011;31019;43.780;25.948;2022-12-07T06:56:58;63.60;;;48.13;;
45274;SDS011;31019;43.780;25.948;2022-12-07T06:59:24;63.88;;;48.20;;
45274;SDS011;31019;43.780;25.948;2022-12-07T07:01:51;52.22;;;44.28;;
45274;SDS011;31019;43.780;25.948;2022-12-07T07:04:18;59.75;;;47.25;;
45274;SDS011;31019;43.780;25.948;2022-12-07T07:06:45;49.65;;;43.70;;
45274;SDS011;31019;43.780;25.948;2022-12-07T07:09:12;52.45;;;46.63;;
45274;SDS011;31019;43.780;25.948;2022-12-07T07:11:38;48.83;;;43.58;;
45274;SDS011;31019;43.780;25.948;2022-12-07T07:16:56;53.10;;;45.63;;
45274;SDS011;31019;43.780;25.948;2022-12-07T07:19:23;52.03;;;43.30;;
45274;SDS011;31019;43.780;25.948;2022-12-07T07:21:51;53.55;;;44.30;;
45274;SDS011;31019;43.780;25.948;2022-12-07T07:24:18;58.28;;;48.85;;
45274;SDS011;31019;43.780;25.948;2022-12-07T07:26:46;55.05;;;46.25;;
45274;SDS011;31019;43.780;25.948;2022-12-07T07:29:12;49.17;;;43.90;;
45274;SDS011;31019;43.780;25.948;2022-12-07T07:31:42;56.50;;;44.53;;
45274;SDS011;31019;43.780;25.948;2022-12-07T07:34:20;60.50;;;45.25;;
45274;SDS011;31019;43.780;25.948;2022-12-07T07:36:47;55.80;;;46.45;;
45274;SDS011;31019;43.780;25.948;2022-12-07T07:42:12;53.38;;;47.55;;
45274;SDS011;31019;43.780;25.948;2022-12-07T07:44:54;50.80;;;45.20;;
45274;SDS011;31019;43.780;25.948;2022-12-07T07:47:23;50.83;;;45.33;;
45274;SDS011;31019;43.780;25.948;2022-12-07T07:49:52;52.13;;;46.53;;
45274;SDS011;31019;43.780;25.948;2022-12-07T07:52:20;59.75;;;50.05;;
45274;SDS011;31019;43.780;25.948;2022-12-07T07:54:53;53.85;;;48.13;;
45274;SDS011;31019;43.780;25.948;2022-12-07T07:57:21;57.80;;;48.15;;
45274;SDS011;31019;43.780;25.948;2022-12-07T07:59:47;58.65;;;48.05;;
45274;SDS011;31019;43.780;25.948;2022-12-07T08:02:15;51.95;;;46.45;;
45274;SDS011;31019;43.780;25.948;2022-12-07T08:04:45;54.17;;;46.80;;
45274;SDS011;31019;43.780;25.948;2022-12-07T08:07:13;58.25;;;48.97;;
45274;SDS011;31019;43.780;25.948;2022-12-07T08:09:41;57.83;;;48.33;;
45274;SDS011;31019;43.780;25.948;2022-12-07T08:12:08;56.88;;;50.33;;
45274;SDS011;31019;43.780;25.948;2022-12-07T08:14:35;59.67;;;48.00;;
45274;SDS011;31019;43.780;25.948;2022-12-07T08:17:01;62.35;;;50.50;;
45274;SDS011;31019;43.780;25.948;2022-12-07T08:19:28;62.83;;;50.40;;
45274;SDS011;31019;43.780;25.948;2022-12-07T08:21:57;63.47;;;49.80;;
45274;SDS011;31019;43.780;25.948;2022-12-07T08:24:23;71.13;;;51.67;;
45274;SDS011;31019;43.780;25.948;2022-12-07T08:26:51;64.28;;;50.70;;
45274;SDS011;31019;43.780;25.948;2022-12-07T08:29:17;59.55;;;50.00;;
45274;SDS011;31019;43.780;25.948;2022-12-07T08:31:44;61.72;;;52.55;;
45274;SDS011;31019;43.780;25.948;2022-12-07T08:34:12;53.03;;;47.60;;
45274;SDS011;31019;43.780;25.948;2022-12-07T08:36:39;51.05;;;45.92;;
45274;SDS011;31019;43.780;25.948;2022-12-07T08:39:07;53.75;;;48.03;;
45274;SDS011;31019;43.780;25.948;2022-12-07T08:41:34;53.72;;;48.17;;
45274;SDS011;31019;43.780;25.948;2022-12-07T08:44:01;49.60;;;44.47;;
45274;SDS011;31019;43.780;25.948;2022-12-07T08:46:29;50.97;;;45.72;;
45274;SDS011;31019;43.780;25.948;2022-12-07T08:49:02;50.00;;;45.20;;
45274;SDS011;31019;43.780;25.948;2022-12-07T08:51:32;49.95;;;44.97;;
45274;SDS011;31019;43.780;25.948;2022-12-07T08:53:59;49.88;;;45.05;;
45274;SDS011;31019;43.780;25.948;2022-12-07T08:56:31;50.17;;;44.83;;
45274;SDS011;31019;43.780;25.948;2022-12-07T08:58:59;48.22;;;43.55;;
45274;SDS011;31019;43.780;25.948;2022-12-07T09:01:26;48.90;;;44.38;;
45274;SDS011;31019;43.780;25.948;2022-12-07T09:03:54;50.90;;;45.60;;
45274;SDS011;31019;43.780;25.948;2022-12-07T09:06:20;51.10;;;46.05;;
45274;SDS011;31019;43.780;25.948;2022-12-07T09:08:48;50.28;;;45.17;;
45274;SDS011;31019;43.780;25.948;2022-12-07T09:11:17;55.42;;;49.60;;
45274;SDS011;31019;43.780;25.948;2022-12-07T09:13:45;55.13;;;49.78;;
45274;SDS011;31019;43.780;25.948;2022-12-07T09:16:13;56.78;;;51.10;;
45274;SDS011;31019;43.780;25.948;2022-12-07T09:18:39;58.47;;;52.67;;
45274;SDS011;31019;43.780;25.948;2022-12-07T09:21:06;52.67;;;47.47;;
45274;SDS011;31019;43.780;25.948;2022-12-07T09:23:34;51.80;;;46.53;;
45274;SDS011;31019;43.780;25.948;2022-12-07T09:26:01;52.53;;;46.92;;
45274;SDS011;31019;43.780;25.948;2022-12-07T09:28:30;54.72;;;48.75;;
45274;SDS011;31019;43.780;25.948;2022-12-07T09:30:59;51.75;;;46.30;;
45274;SDS011;31019;43.780;25.948;2022-12-07T09:33:26;51.17;;;46.03;;
45274;SDS011;31019;43.780;25.948;2022-12-07T09:35:52;50.50;;;45.65;;
45274;SDS011;31019;43.780;25.948;2022-12-07T09:38:19;50.67;;;45.72;;
45274;SDS011;31019;43.780;25.948;2022-12-07T09:40:46;52.45;;;47.55;;
45274;SDS011;31019;43.780;25.948;2022-12-07T09:43:14;50.88;;;45.85;;
45274;SDS011;31019;43.780;25.948;2022-12-07T09:45:43;50.17;;;45.53;;
45274;SDS011;31019;43.780;25.948;2022-12-07T09:48:16;52.70;;;47.45;;
45274;SDS011;31019;43.780;25.948;2022-12-07T09:50:46;53.00;;;47.80;;
45274;SDS011;31019;43.780;25.948;2022-12-07T09:53:16;51.58;;;46.75;;
45274;SDS011;31019;43.780;25.948;2022-12-07T09:55:48;53.20;;;48.20;;
45274;SDS011;31019;43.780;25.948;2022-12-07T09:58:17;62.35;;;56.38;;
45274;SDS011;31019;43.780;25.948;2022-12-07T10:00:47;53.35;;;48.42;;
45274;SDS011;31019;43.780;25.948;2022-12-07T10:03:16;53.08;;;48.17;;
45274;SDS011;31019;43.780;25.948;2022-12-07T10:05:44;50.92;;;46.15;;
45274;SDS011;31019;43.780;25.948;2022-12-07T10:08:13;52.20;;;47.20;;
45274;SDS011;31019;43.780;25.948;2022-12-07T10:10:42;52.00;;;47.25;;
45274;SDS011;31019;43.780;25.948;2022-12-07T10:13:11;50.10;;;45.58;;
45274;SDS011;31019;43.780;25.948;2022-12-07T10:18:33;57.20;;;51.60;;
45274;SDS011;31019;43.780;25.948;2022-12-07T10:21:12;56.30;;;50.50;;
45274;SDS011;31019;43.780;25.948;2022-12-07T10:23:41;51.50;;;46.65;;
45274;SDS011;31019;43.780;25.948;2022-12-07T10:26:29;49.95;;;45.20;;
45274;SDS011;31019;43.780;25.948;2022-12-07T10:28:59;51.28;;;46.63;;
45274;SDS011;31019;43.780;25.948;2022-12-07T10:31:27;54.35;;;49.22;;
45274;SDS011;31019;43.780;25.948;2022-12-07T10:33:57;57.22;;;51.25;;
45274;SDS011;31019;43.780;25.948;2022-12-07T10:36:26;52.78;;;47.85;;
45274;SDS011;31019;43.780;25.948;2022-12-07T10:39:01;51.53;;;46.45;;
45274;SDS011;31019;43.780;25.948;2022-12-07T10:41:30;51.95;;;46.75;;
45274;SDS011;31019;43.780;25.948;2022-12-07T10:43:57;51.17;;;46.38;;
45274;SDS011;31019;43.780;25.948;2022-12-07T10:46:36;53.03;;;47.72;;
45274;SDS011;31019;43.780;25.948;2022-12-07T10:49:22;54.35;;;48.80;;
45274;SDS011;31019;43.780;25.948;2022-12-07T10:52:08;56.13;;;50.30;;
45274;SDS011;31019;43.780;25.948;2022-12-07T10:54:43;51.13;;;46.35;;
45274;SDS011;31019;43.780;25.948;2022-12-07T10:57:27;51.90;;;46.72;;
45274;SDS011;31019;43.780;25.948;2022-12-07T11:02:47;51.80;;;46.63;;
45274;SDS011;31019;43.780;25.948;2022-12-07T11:05:27;60.40;;;54.40;;
45274;SDS011;31019;43.780;25.948;2022-12-07T11:08:04;54.85;;;49.45;;
45274;SDS011;31019;43.780;25.948;2022-12-07T11:10:41;55.50;;;50.20;;
45274;SDS011;31019;43.780;25.948;2022-12-07T11:13:22;53.67;;;48.60;;
45274;SDS011;31019;43.780;25.948;2022-12-07T11:19:06;54.03;;;49.00;;
45274;SDS011;31019;43.780;25.948;2022-12-07T11:21:48;55.83;;;50.25;;
45274;SDS011;31019;43.780;25.948;2022-12-07T11:24:23;53.97;;;49.00;;
45274;SDS011;31019;43.780;25.948;2022-12-07T11:27:01;54.90;;;49.90;;
45274;SDS011;31019;43.780;25.948;2022-12-07T11:29:47;56.50;;;50.72;;
45274;SDS011;31019;43.780;25.948;2022-12-07T11:32:26;55.03;;;49.78;;
45274;SDS011;31019;43.780;25.948;2022-12-07T11:35:11;55.17;;;49.88;;
45274;SDS011;31019;43.780;25.948;2022-12-07T11:37:50;55.03;;;50.00;;
45274;SDS011;31019;43.780;25.948;2022-12-07T11:40:24;53.95;;;48.70;;
45274;SDS011;31019;43.780;25.948;2022-12-07T11:42:55;51.60;;;47.15;;
45274;SDS011;31019;43.780;25.948;2022-12-07T11:45:28;63.35;;;56.63;;
45274;SDS011;31019;43.780;25.948;2022-12-07T11:47:59;54.30;;;49.30;;
45274;SDS011;31019;43.780;25.948;2022-12-07T11:50:32;56.33;;;50.88;;
45274;SDS011;31019;43.780;25.948;2022-12-07T11:53:02;54.45;;;49.42;;
45274;SDS011;31019;43.780;25.948;2022-12-07T11:55:39;52.92;;;48.33;;
45274;SDS011;31019;43.780;25.948;2022-12-07T11:58:12;54.17;;;48.92;;
45274;SDS011;31019;43.780;25.948;2022-12-07T12:00:47;51.65;;;47.05;;
45274;SDS011;31019;43.780;25.948;2022-12-07T12:03:19;54.53;;;49.75;;
45274;SDS011;31019;43.780;25.948;2022-12-07T12:05:55;57.63;;;51.55;;
45274;SDS011;31019;43.780;25.948;2022-12-07T12:08:24;56.17;;;50.53;;
45274;SDS011;31019;43.780;25.948;2022-12-07T12:10:57;65.68;;;54.55;;
45274;SDS011;31019;43.780;25.948;2022-12-07T12:13:54;57.38;;;51.67;;
45274;SDS011;31019;43.780;25.948;2022-12-07T12:16:42;55.50;;;49.80;;
45274;SDS011;31019;43.780;25.948;2022-12-07T12:19:24;59.33;;;53.08;;
45274;SDS011;31019;43.780;25.948;2022-12-07T12:22:05;58.63;;;52.63;;
45274;SDS011;31019;43.780;25.948;2022-12-07T12:24:48;58.45;;;52.58;;
45274;SDS011;31019;43.780;25.948;2022-12-07T12:27:20;56.10;;;50.58;;
45274;SDS011;31019;43.780;25.948;2022-12-07T12:29:52;55.47;;;49.97;;
45274;SDS011;31019;43.780;25.948;2022-12-07T12:32:22;60.38;;;54.08;;
45274;SDS011;31019;43.780;25.948;2022-12-07T12:35:00;58.53;;;52.63;;
45274;SDS011;31019;43.780;25.948;2022-12-07T12:37:46;56.55;;;50.47;;
45274;SDS011;31019;43.780;25.948;2022-12-07T12:55:16;84.18;;;58.97;;
45274;SDS011;31019;43.780;25.948;2022-12-07T12:57:48;83.53;;;62.10;;
45274;SDS011;31019;43.780;25.948;2022-12-07T13:04:37;70.50;;;55.28;;
45274;SDS011;31019;43.780;25.948;2022-12-07T13:12:58;67.03;;;54.88;;
45274;SDS011;31019;43.780;25.948;2022-12-07T13:15:34;78.50;;;61.80;;
45274;SDS011;31019;43.780;25.948;2022-12-07T13:18:03;71.20;;;59.80;;
45274;SDS011;31019;43.780;25.948;2022-12-07T13:20:50;87.63;;;70.50;;
45274;SDS011;31019;43.780;25.948;2022-12-07T13:23:31;77.05;;;60.30;;
45274;SDS011;31019;43.780;25.948;2022-12-07T13:26:09;80.72;;;62.75;;
45274;SDS011;31019;43.780;25.948;2022-12-07T13:28:41;70.28;;;59.90;;
45274;SDS011;31019;43.780;25.948;2022-12-07T13:31:18;69.63;;;56.75;;
45274;SDS011;31019;43.780;25.948;2022-12-07T13:33:51;75.55;;;59.88;;
45274;SDS011;31019;43.780;25.948;2022-12-07T13:36:20;83.90;;;66.55;;
45274;SDS011;31019;43.780;25.948;2022-12-07T13:38:50;99.18;;;78.18;;
45274;SDS011;31019;43.780;25.948;2022-12-07T13:41:19;98.13;;;76.28;;
45274;SDS011;31019;43.780;25.948;2022-12-07T13:43:48;96.45;;;71.43;;
45274;SDS011;31019;43.780;25.948;2022-12-07T13:46:17;77.90;;;63.08;;
45274;SDS011;31019;43.780;25.948;2022-12-07T13:48:47;74.35;;;58.25;;
45274;SDS011;31019;43.780;25.948;2022-12-07T13:51:17;74.65;;;58.13;;
45274;SDS011;31019;43.780;25.948;2022-12-07T13:53:47;70.45;;;58.00;;
45274;SDS011;31019;43.780;25.948;2022-12-07T13:56:15;68.57;;;57.28;;
45274;SDS011;31019;43.780;25.948;2022-12-07T13:58:42;66.70;;;56.55;;
45274;SDS011;31019;43.780;25.948;2022-12-07T14:01:10;66.38;;;54.15;;
45274;SDS011;31019;43.780;25.948;2022-12-07T14:03:38;65.32;;;54.67;;
45274;SDS011;31019;43.780;25.948;2022-12-07T14:06:06;63.85;;;53.00;;
45274;SDS011;31019;43.780;25.948;2022-12-07T14:08:44;84.13;;;69.05;;
45274;SDS011;31019;43.780;25.948;2022-12-07T14:11:13;77.07;;;61.35;;
45274;SDS011;31019;43.780;25.948;2022-12-07T14:13:56;87.15;;;67.70;;
45274;SDS011;31019;43.780;25.948;2022-12-07T14:16:26;84.93;;;64.53;;
45274;SDS011;31019;43.780;25.948;2022-12-07T14:18:55;73.43;;;58.10;;
45274;SDS011;31019;43.780;25.948;2022-12-07T14:21:23;74.47;;;58.60;;
45274;SDS011;31019;43.780;25.948;2022-12-07T14:26:42;90.07;;;69.10;;
45274;SDS011;31019;43.780;25.948;2022-12-07T14:29:19;92.70;;;72.75;;
45274;SDS011;31019;43.780;25.948;2022-12-07T14:31:47;88.88;;;67.50;;
45274;SDS011;31019;43.780;25.948;2022-12-07T14:34:33;77.20;;;60.50;;
45274;SDS011;31019;43.780;25.948;2022-12-07T14:37:00;78.70;;;60.00;;
45274;SDS011;31019;43.780;25.948;2022-12-07T14:39:28;80.63;;;61.42;;
45274;SDS011;31019;43.780;25.948;2022-12-07T14:41:54;77.93;;;57.97;;
45274;SDS011;31019;43.780;25.948;2022-12-07T14:44:22;112.90;;;79.38;;
45274;SDS011;31019;43.780;25.948;2022-12-07T14:46:49;115.32;;;76.53;;
45274;SDS011;31019;43.780;25.948;2022-12-07T14:49:18;88.85;;;67.40;;
45274;SDS011;31019;43.780;25.948;2022-12-07T14:51:46;88.13;;;63.90;;
45274;SDS011;31019;43.780;25.948;2022-12-07T14:54:15;77.90;;;60.97;;
45274;SDS011;31019;43.780;25.948;2022-12-07T14:56:45;86.68;;;61.97;;
45274;SDS011;31019;43.780;25.948;2022-12-07T14:59:15;90.60;;;60.45;;
45274;SDS011;31019;43.780;25.948;2022-12-07T15:01:42;88.55;;;61.45;;
45274;SDS011;31019;43.780;25.948;2022-12-07T15:04:10;91.70;;;60.38;;
45274;SDS011;31019;43.780;25.948;2022-12-07T15:06:37;88.65;;;61.60;;
45274;SDS011;31019;43.780;25.948;2022-12-07T15:09:04;88.93;;;64.30;;
45274;SDS011;31019;43.780;25.948;2022-12-07T15:11:31;94.18;;;63.10;;
45274;SDS011;31019;43.780;25.948;2022-12-07T15:13:59;100.35;;;63.88;;
45274;SDS011;31019;43.780;25.948;2022-12-07T15:16:36;99.88;;;65.88;;
45274;SDS011;31019;43.780;25.948;2022-12-07T15:19:06;95.82;;;65.50;;
45274;SDS011;31019;43.780;25.948;2022-12-07T15:21:36;108.70;;;67.00;;
45274;SDS011;31019;43.780;25.948;2022-12-07T15:24:03;107.65;;;65.10;;
45274;SDS011;31019;43.780;25.948;2022-12-07T15:26:34;109.07;;;65.80;;
45274;SDS011;31019;43.780;25.948;2022-12-07T15:29:03;105.72;;;67.20;;
45274;SDS011;31019;43.780;25.948;2022-12-07T15:31:42;110.75;;;67.95;;
45274;SDS011;31019;43.780;25.948;2022-12-07T15:34:11;111.43;;;68.38;;
45274;SDS011;31019;43.780;25.948;2022-12-07T15:36:44;128.68;;;82.13;;
45274;SDS011;31019;43.780;25.948;2022-12-07T15:39:11;133.05;;;86.90;;
45274;SDS011;31019;43.780;25.948;2022-12-07T15:41:40;229.75;;;146.43;;
45274;SDS011;31019;43.780;25.948;2022-12-07T15:44:09;162.23;;;102.30;;
45274;SDS011;31019;43.780;25.948;2022-12-07T15:46:56;139.45;;;88.60;;
45274;SDS011;31019;43.780;25.948;2022-12-07T15:49:23;126.30;;;78.43;;
45274;SDS011;31019;43.780;25.948;2022-12-07T15:51:50;119.45;;;75.75;;
45274;SDS011;31019;43.780;25.948;2022-12-07T15:54:19;120.95;;;80.93;;
45274;SDS011;31019;43.780;25.948;2022-12-07T15:56:47;105.57;;;69.18;;
45274;SDS011;31019;43.780;25.948;2022-12-07T15:59:20;104.00;;;66.18;;
45274;SDS011;31019;43.780;25.948;2022-12-07T16:01:47;103.43;;;66.45;;
45274;SDS011;31019;43.780;25.948;2022-12-07T16:04:14;122.45;;;73.68;;
45274;SDS011;31019;43.780;25.948;2022-12-07T16:06:41;130.70;;;80.07;;
45274;SDS011;31019;43.780;25.948;2022-12-07T16:09:07;129.15;;;79.10;;
45274;SDS011;31019;43.780;25.948;2022-12-07T16:11:34;124.82;;;78.72;;
45274;SDS011;31019;43.780;25.948;2022-12-07T16:14:01;122.55;;;71.75;;
45274;SDS011;31019;43.780;25.948;2022-12-07T16:16:29;117.50;;;69.53;;
45274;SDS011;31019;43.780;25.948;2022-12-07T16:18:56;111.70;;;64.20;;
45274;SDS011;31019;43.780;25.948;2022-12-07T16:21:24;116.07;;;67.45;;
45274;SDS011;31019;43.780;25.948;2022-12-07T16:23:56;118.20;;;68.20;;
45274;SDS011;31019;43.780;25.948;2022-12-07T16:26:26;115.00;;;62.20;;
45274;SDS011;31019;43.780;25.948;2022-12-07T16:28:53;118.75;;;67.13;;
45274;SDS011;31019;43.780;25.948;2022-12-07T16:31:21;127.85;;;74.53;;
45274;SDS011;31019;43.780;25.948;2022-12-07T16:33:51;132.88;;;76.32;;
45274;SDS011;31019;43.780;25.948;2022-12-07T16:36:19;138.70;;;79.85;;
45274;SDS011;31019;43.780;25.948;2022-12-07T16:38:48;157.25;;;88.30;;
45274;SDS011;31019;43.780;25.948;2022-12-07T16:41:14;126.97;;;76.43;;
45274;SDS011;31019;43.780;25.948;2022-12-07T16:43:41;143.45;;;79.20;;
45274;SDS011;31019;43.780;25.948;2022-12-07T16:46:08;122.68;;;69.07;;
45274;SDS011;31019;43.780;25.948;2022-12-07T16:48:36;161.63;;;96.85;;
45274;SDS011;31019;43.780;25.948;2022-12-07T16:51:05;125.07;;;69.60;;
45274;SDS011;31019;43.780;25.948;2022-12-07T16:53:34;140.02;;;83.28;;
45274;SDS011;31019;43.780;25.948;2022-12-07T16:56:01;130.52;;;75.00;;
45274;SDS011;31019;43.780;25.948;2022-12-07T16:58:28;118.20;;;67.38;;
45274;SDS011;31019;43.780;25.948;2022-12-07T17:00:56;123.68;;;71.68;;
45274;SDS011;31019;43.780;25.948;2022-12-07T17:03:23;159.73;;;88.78;;
45274;SDS011;31019;43.780;25.948;2022-12-07T17:05:50;121.75;;;67.93;;
45274;SDS011;31019;43.780;25.948;2022-12-07T17:08:18;141.57;;;74.65;;
45274;SDS011;31019;43.780;25.948;2022-12-07T17:10:45;114.45;;;63.22;;
45274;SDS011;31019;43.780;25.948;2022-12-07T17:13:11;107.30;;;62.53;;
45274;SDS011;31019;43.780;25.948;2022-12-07T17:15:56;112.22;;;64.82;;
45274;SDS011;31019;43.780;25.948;2022-12-07T17:18:25;135.68;;;79.07;;
45274;SDS011;31019;43.780;25.948;2022-12-07T17:20:53;108.32;;;61.35;;
45274;SDS011;31019;43.780;25.948;2022-12-07T17:23:21;147.35;;;80.57;;
45274;SDS011;31019;43.780;25.948;2022-12-07T17:25:50;151.40;;;83.00;;
45274;SDS011;31019;43.780;25.948;2022-12-07T17:28:16;165.68;;;89.10;;
45274;SDS011;31019;43.780;25.948;2022-12-07T17:30:43;131.25;;;76.68;;
45274;SDS011;31019;43.780;25.948;2022-12-07T17:33:10;152.85;;;86.88;;
45274;SDS011;31019;43.780;25.948;2022-12-07T17:35:37;211.13;;;117.15;;
45274;SDS011;31019;43.780;25.948;2022-12-07T17:38:04;174.68;;;88.13;;
45274;SDS011;31019;43.780;25.948;2022-12-07T17:40:32;179.63;;;92.90;;
45274;SDS011;31019;43.780;25.948;2022-12-07T17:42:59;151.13;;;85.10;;
45274;SDS011;31019;43.780;25.948;2022-12-07T17:45:26;206.05;;;118.25;;
45274;SDS011;31019;43.780;25.948;2022-12-07T17:47:53;178.98;;;87.75;;
45274;SDS011;31019;43.780;25.948;2022-12-07T17:50:19;152.98;;;83.35;;
45274;SDS011;31019;43.780;25.948;2022-12-07T17:53:07;122.75;;;71.15;;
45274;SDS011;31019;43.780;25.948;2022-12-07T17:55:36;127.30;;;73.72;;
45274;SDS011;31019;43.780;25.948;2022-12-07T17:58:03;102.43;;;60.67;;
45274;SDS011;31019;43.780;25.948;2022-12-07T18:00:30;108.90;;;63.30;;
45274;SDS011;31019;43.780;25.948;2022-12-07T18:03:03;105.28;;;58.92;;
45274;SDS011;31019;43.780;25.948;2022-12-07T18:05:33;118.20;;;62.15;;
45274;SDS011;31019;43.780;25.948;2022-12-07T18:08:00;100.95;;;57.60;;
45274;SDS011;31019;43.780;25.948;2022-12-07T18:10:27;108.28;;;60.13;;
45274;SDS011;31019;43.780;25.948;2022-12-07T18:12:55;107.10;;;58.15;;
45274;SDS011;31019;43.780;25.948;2022-12-07T18:15:36;107.63;;;58.60;;
45274;SDS011;31019;43.780;25.948;2022-12-07T18:18:02;107.35;;;58.00;;
45274;SDS011;31019;43.780;25.948;2022-12-07T18:20:29;107.05;;;62.50;;
45274;SDS011;31019;43.780;25.948;2022-12-07T18:22:56;111.45;;;63.10;;
45274;SDS011;31019;43.780;25.948;2022-12-07T18:25:23;113.43;;;61.95;;
45274;SDS011;31019;43.780;25.948;2022-12-07T18:27:50;116.50;;;66.25;;
45274;SDS011;31019;43.780;25.948;2022-12-07T18:30:18;119.88;;;66.60;;
45274;SDS011;31019;43.780;25.948;2022-12-07T18:32:45;101.57;;;57.35;;
45274;SDS011;31019;43.780;25.948;2022-12-07T18:35:12;131.68;;;73.93;;
45274;SDS011;31019;43.780;25.948;2022-12-07T18:37:39;133.55;;;68.97;;
45274;SDS011;31019;43.780;25.948;2022-12-07T18:40:07;138.18;;;78.75;;
45274;SDS011;31019;43.780;25.948;2022-12-07T18:42:35;150.95;;;80.95;;
45274;SDS011;31019;43.780;25.948;2022-12-07T18:45:02;129.73;;;74.40;;
45274;SDS011;31019;43.780;25.948;2022-12-07T18:47:31;116.47;;;69.90;;
45274;SDS011;31019;43.780;25.948;2022-12-07T18:49:59;123.82;;;68.70;;
45274;SDS011;31019;43.780;25.948;2022-12-07T18:52:26;120.25;;;61.10;;
45274;SDS011;31019;43.780;25.948;2022-12-07T18:54:53;104.72;;;56.38;;
45274;SDS011;31019;43.780;25.948;2022-12-07T18:57:20;128.63;;;67.05;;
45274;SDS011;31019;43.780;25.948;2022-12-07T18:59:46;142.95;;;71.35;;
45274;SDS011;31019;43.780;25.948;2022-12-07T19:02:14;137.82;;;65.05;;
45274;SDS011;31019;43.780;25.948;2022-12-07T19:04:44;109.75;;;59.83;;
45274;SDS011;31019;43.780;25.948;2022-12-07T19:07:11;106.85;;;56.63;;
45274;SDS011;31019;43.780;25.948;2022-12-07T19:09:37;115.18;;;57.28;;
45274;SDS011;31019;43.780;25.948;2022-12-07T19:12:04;115.68;;;60.97;;